createdAt,value
2022-08-22T00:02:11.056Z,100.00
2022-08-22T00:07:14.942Z,100.00
2022-08-22T00:12:17.675Z,100.00
2022-08-22T00:17:20.623Z,100.00
2022-08-22T00:22:23.348Z,100.00
2022-08-22T00:27:26.237Z,100.00
2022-08-22T00:32:29.148Z,100.00
2022-08-22T00:37:31.873Z,100.00
2022-08-22T00:42:34.989Z,100.00
2022-08-22T00:47:37.681Z,100.00
2022-08-22T00:52:40.486Z,100.00
2022-08-22T00:57:43.265Z,100.00
2022-08-22T01:02:50.451Z,100.00
2022-08-22T01:07:55.230Z,100.00
2022-08-22T01:12:58.164Z,100.00
2022-08-22T01:18:01.062Z,100.00
2022-08-22T01:23:03.867Z,100.00
2022-08-22T01:28:07.015Z,100.00
2022-08-22T01:33:09.752Z,100.00
2022-08-22T01:38:12.951Z,100.00
2022-08-22T01:43:16.007Z,100.00
2022-08-22T01:48:18.881Z,100.00
2022-08-22T01:53:22.892Z,100.00
2022-08-22T01:58:25.602Z,100.00
2022-08-22T02:03:29.406Z,100.00
2022-08-22T02:08:32.239Z,100.00
2022-08-22T02:13:35.093Z,100.00
2022-08-22T02:18:37.893Z,100.00
2022-08-22T02:23:40.739Z,100.00
2022-08-22T02:28:56.395Z,100.00
2022-08-22T02:34:01.367Z,100.00
2022-08-22T02:39:04.270Z,100.00
2022-08-22T02:44:07.141Z,100.00
2022-08-22T02:49:09.998Z,100.00
2022-08-22T02:54:13.249Z,100.00
2022-08-22T02:59:16.563Z,100.00
2022-08-22T03:04:19.479Z,100.00
2022-08-22T03:09:22.364Z,100.00
2022-08-22T03:14:25.125Z,100.00
2022-08-22T03:19:28.060Z,100.00
2022-08-22T03:24:30.901Z,100.00
2022-08-22T03:29:33.740Z,100.00
2022-08-22T03:34:36.503Z,100.00
2022-08-22T03:39:39.476Z,100.00
2022-08-22T03:44:42.207Z,100.00
2022-08-22T03:49:45.252Z,100.00
2022-08-22T03:54:48.604Z,100.00
2022-08-22T03:59:51.384Z,100.00
2022-08-22T04:04:54.152Z,100.00
2022-08-22T04:09:56.881Z,100.00
2022-08-22T04:14:59.719Z,100.00
2022-08-22T04:20:02.454Z,100.00
2022-08-22T04:25:07.941Z,100.00
2022-08-22T04:30:11.130Z,100.00
2022-08-22T04:35:13.841Z,100.00
2022-08-22T04:40:16.598Z,100.00
2022-08-22T04:45:19.413Z,100.00
2022-08-22T04:50:22.202Z,100.00
2022-08-22T04:55:25.229Z,100.00
2022-08-22T05:00:28.100Z,100.00
2022-08-22T05:05:31.504Z,100.00
2022-08-22T05:10:34.237Z,100.00
2022-08-22T05:15:36.986Z,100.00
2022-08-22T05:20:39.809Z,100.00
2022-08-22T05:25:42.879Z,100.00
2022-08-22T05:30:45.625Z,100.00
2022-08-22T05:35:50.804Z,100.00
2022-08-22T05:40:55.311Z,100.00
2022-08-22T05:45:59.215Z,100.00
2022-08-22T05:51:02.081Z,100.00
2022-08-22T05:56:04.825Z,100.00
2022-08-22T06:01:07.681Z,100.00
2022-08-22T06:06:10.853Z,100.00
2022-08-22T06:11:13.686Z,100.00
2022-08-22T06:16:17.925Z,100.00
2022-08-22T06:21:21.218Z,99.10
2022-08-22T06:26:24.330Z,99.89
2022-08-22T06:31:27.078Z,97.83
2022-08-22T06:36:33.175Z,96.61
2022-08-22T06:41:35.933Z,98.42
2022-08-22T06:46:38.699Z,98.39
2022-08-22T06:51:41.563Z,97.45
2022-08-22T06:56:44.293Z,95.24
2022-08-22T07:01:47.297Z,94.06
2022-08-22T07:06:50.523Z,92.78
2022-08-22T07:11:54.330Z,94.15
2022-08-22T07:16:57.068Z,90.96
2022-08-22T07:22:03.810Z,88.78
2022-08-22T07:27:08.958Z,90.11
2022-08-22T07:32:11.817Z,86.23
2022-08-22T07:37:14.627Z,83.17
2022-08-22T07:42:17.508Z,80.08
2022-08-22T07:47:26.339Z,78.41
2022-08-22T07:52:29.589Z,76.30
2022-08-22T07:57:32.694Z,75.87
2022-08-22T08:02:35.584Z,75.32
2022-08-22T08:07:38.542Z,71.12
2022-08-22T08:12:41.564Z,71.49
2022-08-22T08:17:50.204Z,67.26
2022-08-22T08:22:54.052Z,60.62
2022-08-22T08:28:14.338Z,60.05
2022-08-22T08:33:25.930Z,57.69
2022-08-22T08:38:29.373Z,56.21
2022-08-22T08:43:34.974Z,55.38
2022-08-22T08:48:37.703Z,50.65
2022-08-22T08:53:43.268Z,49.81
2022-08-22T08:58:46.894Z,49.02
2022-08-22T09:03:51.538Z,49.86
2022-08-22T09:08:55.961Z,50.18
2022-08-22T09:13:58.794Z,49.90
2022-08-22T09:19:01.518Z,47.79
2022-08-22T09:24:15.458Z,46.77
2022-08-22T09:29:18.263Z,45.08
2022-08-22T09:34:23.872Z,43.94
2022-08-22T09:39:26.863Z,45.42
2022-08-22T09:44:30.053Z,45.84
2022-08-22T09:49:33.462Z,41.87
2022-08-22T09:54:36.554Z,42.51
2022-08-22T09:59:41.164Z,42.09
2022-08-22T10:04:44.729Z,41.10
2022-08-22T10:09:47.552Z,41.92
2022-08-22T10:14:56.344Z,39.52
2022-08-22T10:19:59.973Z,38.05
2022-08-22T10:25:03.024Z,41.76
2022-08-22T10:30:09.697Z,41.15
2022-08-22T10:35:13.018Z,40.96
2022-08-22T10:40:18.664Z,43.73
2022-08-22T10:45:24.025Z,42.48
2022-08-22T10:50:38.757Z,42.98
2022-08-22T10:55:45.887Z,43.37
2022-08-22T11:00:49.861Z,42.00
2022-08-22T11:05:53.183Z,42.06
2022-08-22T11:10:57.796Z,40.82
2022-08-22T11:16:00.534Z,39.26
2022-08-22T11:21:07.284Z,40.47
2022-08-22T11:26:10.369Z,40.74
2022-08-22T11:31:14.055Z,38.28
2022-08-22T11:36:17.408Z,39.58
2022-08-22T11:41:20.370Z,39.34
2022-08-22T11:46:23.252Z,38.57
2022-08-22T11:51:26.333Z,38.28
2022-08-22T11:56:29.600Z,36.75
2022-08-22T12:01:34.256Z,38.88
2022-08-22T12:06:37.369Z,37.38
2022-08-22T12:11:40.104Z,37.92
2022-08-22T12:16:45.006Z,37.55
2022-08-22T12:21:49.503Z,36.36
2022-08-22T12:26:52.495Z,35.93
2022-08-22T12:31:57.745Z,36.13
2022-08-22T12:37:00.851Z,37.53
2022-08-22T12:42:04.158Z,36.67
2022-08-22T12:47:07.473Z,36.53
2022-08-22T12:52:12.149Z,35.84
2022-08-22T12:57:24.262Z,34.53
2022-08-22T13:02:27.364Z,35.76
2022-08-22T13:07:30.396Z,37.04
2022-08-22T13:12:35.223Z,36.71
2022-08-22T13:17:37.995Z,34.64
2022-08-22T13:22:45.678Z,36.29
2022-08-22T13:27:51.381Z,35.87
2022-08-22T13:32:54.374Z,34.81
2022-08-22T13:37:57.161Z,35.57
2022-08-22T13:43:03.145Z,36.15
2022-08-22T13:48:08.680Z,36.28
2022-08-22T13:53:11.794Z,35.76
2022-08-22T13:58:20.215Z,37.59
2022-08-22T14:03:24.762Z,38.14
2022-08-22T14:08:27.493Z,38.24
2022-08-22T14:13:30.400Z,37.97
2022-08-22T14:18:36.021Z,37.51
2022-08-22T14:23:48.469Z,36.16
2022-08-22T14:28:51.526Z,35.40
2022-08-22T14:33:56.077Z,35.16
2022-08-22T14:38:59.600Z,35.07
2022-08-22T14:44:02.829Z,35.21
2022-08-22T14:49:05.814Z,36.54
2022-08-22T14:54:08.845Z,35.83
2022-08-22T14:59:17.267Z,36.35
2022-08-22T15:04:20.375Z,36.44
2022-08-22T15:09:23.487Z,36.21
2022-08-22T15:14:26.901Z,36.33
2022-08-22T15:19:29.778Z,37.24
2022-08-22T15:24:32.766Z,38.46
2022-08-22T15:29:36.610Z,40.08
2022-08-22T15:34:39.347Z,41.30
2022-08-22T15:39:43.545Z,40.97
2022-08-22T15:44:46.265Z,41.42
2022-08-22T15:49:50.445Z,42.71
2022-08-22T15:54:53.853Z,44.55
2022-08-22T15:59:56.717Z,45.55
2022-08-22T16:04:59.491Z,45.32
2022-08-22T16:10:02.642Z,45.35
2022-08-22T16:15:05.477Z,45.30
2022-08-22T16:20:19.446Z,45.43
2022-08-22T16:25:23.045Z,45.15
2022-08-22T16:30:25.866Z,44.70
2022-08-22T16:35:28.636Z,43.44
2022-08-22T16:40:31.889Z,43.43
2022-08-22T16:45:34.802Z,42.29
2022-08-22T16:50:38.642Z,42.04
2022-08-22T16:55:41.753Z,41.73
2022-08-22T17:00:45.153Z,42.38
2022-08-22T17:05:51.600Z,42.96
2022-08-22T17:10:54.413Z,43.98
2022-08-22T17:15:57.138Z,44.40
2022-08-22T17:21:00.188Z,44.94
2022-08-22T17:26:02.940Z,45.45
2022-08-22T17:31:05.793Z,45.50
2022-08-22T17:36:08.792Z,45.68
2022-08-22T17:41:30.111Z,46.34
2022-08-22T17:46:32.972Z,47.14
2022-08-22T17:51:36.840Z,47.61
2022-08-22T17:56:39.834Z,48.03
2022-08-22T18:01:42.786Z,48.64
2022-08-22T18:06:45.750Z,49.70
2022-08-22T18:11:49.511Z,50.92
2022-08-22T18:16:52.400Z,52.16
2022-08-22T18:21:55.139Z,53.21
2022-08-22T18:26:57.934Z,54.67
2022-08-22T18:32:00.881Z,56.35
2022-08-22T18:37:03.799Z,58.67
2022-08-22T18:42:07.292Z,59.94
2022-08-22T18:47:10.014Z,61.14
2022-08-22T18:52:13.573Z,61.96
2022-08-22T18:57:17.741Z,62.90
2022-08-22T19:02:20.584Z,63.59
2022-08-22T19:07:23.381Z,64.06
2022-08-22T19:12:26.175Z,63.94
2022-08-22T19:17:29.077Z,65.17
2022-08-22T19:22:34.005Z,65.73
2022-08-22T19:27:36.926Z,65.82
2022-08-22T19:32:39.671Z,66.21
2022-08-22T19:37:46.237Z,67.71
2022-08-22T19:42:50.089Z,67.00
2022-08-22T19:47:53.075Z,68.38
2022-08-22T19:52:57.983Z,68.35
2022-08-22T19:58:00.898Z,68.74
2022-08-22T20:03:05.170Z,68.64
2022-08-22T20:08:07.966Z,71.06
2022-08-22T20:13:11.904Z,68.88
2022-08-22T20:23:37.956Z,72.25
2022-08-22T20:28:40.818Z,72.55
2022-08-22T20:33:47.112Z,73.46
2022-08-22T20:38:55.695Z,74.25
2022-08-22T20:43:58.993Z,74.48
2022-08-22T20:49:01.902Z,74.35
2022-08-22T20:54:10.047Z,74.85
2022-08-22T20:59:16.525Z,74.50
2022-08-22T21:04:19.816Z,75.15
2022-08-22T21:09:40.351Z,77.25
2022-08-22T21:14:46.296Z,78.62
2022-08-22T21:19:49.100Z,78.66
2022-08-22T21:24:52.094Z,78.85
2022-08-22T21:29:55.030Z,79.93
2022-08-22T21:34:57.745Z,78.41
2022-08-22T21:40:00.708Z,78.90
2022-08-22T21:45:03.724Z,80.33
2022-08-22T21:50:06.579Z,81.30
2022-08-22T21:55:13.017Z,82.42
2022-08-22T22:00:15.808Z,82.31
2022-08-22T22:05:20.509Z,83.58
2022-08-22T22:10:23.636Z,84.89
2022-08-22T22:15:26.424Z,85.18
2022-08-22T22:20:29.596Z,85.49
2022-08-22T22:25:40.759Z,85.88
2022-08-22T22:30:45.110Z,86.95
2022-08-22T22:35:48.066Z,87.13
2022-08-22T22:40:50.939Z,87.20
2022-08-22T22:45:53.785Z,89.02
2022-08-22T22:50:56.802Z,90.18
2022-08-22T22:56:00.604Z,90.38
2022-08-22T23:01:03.709Z,90.33
2022-08-22T23:06:06.986Z,91.53
2022-08-22T23:11:09.878Z,92.61
2022-08-22T23:16:13.466Z,92.74
2022-08-22T23:21:16.807Z,93.24
2022-08-22T23:26:19.586Z,93.34
2022-08-22T23:31:22.317Z,94.80
2022-08-22T23:36:25.474Z,96.96
2022-08-22T23:41:30.240Z,98.14
2022-08-22T23:46:32.977Z,98.18
2022-08-22T23:51:37.736Z,98.80
2022-08-22T23:56:40.676Z,99.88
